»·PEaware :: N318MB KHHR-KTOA

N318MB :: KHHR-KTOA

FLIGHT INFORMATION

Flight Status: Arrived
Operator: Privately registered:
United States
More flights under this callsign
Pilot: Simulation Flight (14767)
Aircraft: CESSNA 172 SKYHAWK
(C172)
More flights by this aircraft type
Origin: KHHR Northrop/Hawthorne Mun
United States
Destination: KTOA Zamperini
United States
More flights between these airports :: More routes between these airports
Route: SPACX1 SPACX INISH GPS RWY 11L
File this flight plan on PilotEdge
Remarks: +CW /
Altitude:
(Current/Filed)
3,000ft
Speed:
(Current/Filed)
120kts
Departed: 14-Dec-19 12:24 PM
Arrived: 14-Dec-19 12:54 PM
Distance/Time
Traveled:
7nm/0:30
Distance/Time
To Go:
Arrived

Flight Plot

Page will automatically refresh every two minutes.

Flight plan parsing failed; only flown route is shown


Map Options




Map Legend


Flown Route
Filed Route
Departure Airport
Arrival Airport
Navaid (VOR, NDB)
Fix

Horizontal Profiles

Position Reports

Time Latitude Longitude Heading Altitude Ground
Speed
14-Dec-19 12:00 33.922003 -118.328998 0 62ft 0kts
14-Dec-19 12:01 33.922003 -118.328998 0 62ft 0kts
14-Dec-19 12:02 33.922003 -118.328998 0 62ft 0kts
14-Dec-19 12:03 33.922003 -118.328998 0 62ft 0kts
14-Dec-19 12:04 33.922003 -118.328998 0 62ft 0kts
14-Dec-19 12:05 33.922003 -118.328998 0 62ft 0kts
14-Dec-19 12:06 33.922003 -118.328998 0 62ft 0kts
14-Dec-19 12:07 33.922003 -118.328998 0 62ft 0kts
14-Dec-19 12:08 33.922003 -118.328998 0 62ft 0kts
14-Dec-19 12:09 33.922003 -118.328998 0 62ft 0kts
14-Dec-19 12:10 33.922003 -118.328998 0 62ft 0kts
14-Dec-19 12:11 33.922003 -118.328998 0 62ft 0kts
14-Dec-19 12:12 33.922003 -118.328998 0 62ft 0kts
14-Dec-19 12:13 33.922003 -118.328998 0 62ft 0kts
14-Dec-19 12:14 33.922003 -118.328998 0 62ft 0kts
14-Dec-19 12:15 33.922003 -118.328998 0 62ft 0kts
14-Dec-19 12:16 33.922003 -118.328998 0 62ft 0kts
14-Dec-19 12:17 33.922003 -118.328998 0 62ft 0kts
14-Dec-19 12:18 33.922410 -118.328669 59 61ft 12kts
14-Dec-19 12:19 33.922688 -118.326802 24 60ft 0kts
14-Dec-19 12:20 33.922688 -118.326802 24 60ft 0kts
14-Dec-19 12:21 33.922688 -118.326802 24 60ft 0kts
14-Dec-19 12:22 33.922722 -118.326787 14 60ft 3kts
14-Dec-19 12:23 33.922607 -118.340163 268 287ft 92kts
14-Dec-19 12:24 33.917201 -118.370781 256 1534ft 95kts
14-Dec-19 12:25 33.893932 -118.391153 212 2462ft 105kts
14-Dec-19 12:26 33.870239 -118.408244 210 3067ft 100kts
14-Dec-19 12:27 33.846626 -118.425727 210 3041ft 97kts
14-Dec-19 12:28 33.824668 -118.443997 214 3061ft 117kts
14-Dec-19 12:29 33.794264 -118.464591 204 3039ft 115kts
14-Dec-19 12:30 33.769032 -118.478916 204 3044ft 91kts
14-Dec-19 12:31 33.747433 -118.491308 204 3045ft 81kts
14-Dec-19 12:32 33.727631 -118.502761 204 3046ft 77kts
14-Dec-19 12:33 33.706919 -118.514725 204 3049ft 88kts
14-Dec-19 12:34 33.688444 -118.532381 274 3053ft 97kts
14-Dec-19 12:35 33.712226 -118.542443 1 3047ft 100kts
14-Dec-19 12:36 33.739842 -118.542054 3 3046ft 99kts
14-Dec-19 12:37 33.757596 -118.527983 120 3053ft 88kts
14-Dec-19 12:38 33.734950 -118.528524 195 3047ft 89kts
14-Dec-19 12:39 33.736323 -118.548322 5 3053ft 97kts
14-Dec-19 12:40 33.755488 -118.532616 111 3053ft 89kts
14-Dec-19 12:41 33.734006 -118.532821 200 3047ft 89kts
14-Dec-19 12:42 33.718149 -118.551055 293 3053ft 96kts
14-Dec-19 12:43 33.742282 -118.550943 30 3048ft 97kts
14-Dec-19 12:44 33.764608 -118.537078 32 3190ft 82kts
14-Dec-19 12:45 33.792251 -118.529243 1 2840ft 115kts
14-Dec-19 12:46 33.821986 -118.518998 47 2558ft 119kts
14-Dec-19 12:47 33.846232 -118.491633 46 2282ft 120kts
14-Dec-19 12:48 33.864871 -118.459544 98 2022ft 122kts
14-Dec-19 12:49 33.848052 -118.426688 126 1703ft 105kts
14-Dec-19 12:50 33.835657 -118.395445 112 1194ft 103kts
14-Dec-19 12:51 33.820309 -118.366072 131 710ft 104kts
14-Dec-19 12:52 33.805756 -118.342141 132 95ft 65kts
14-Dec-19 12:53 33.799557 -118.333118 167 99ft 11kts
14-Dec-19 12:54 33.798068 -118.334576 294 98ft 9kts
14-Dec-19 12:56 33.799342 -118.337696 290 94ft 11kts

Navigation Log

Ident Type
Flight plan parsing failed, navigation log unavailable